Time;durP1;ratioP1;P1;durP2;ratioP2;P2;SDS_P1;SDS_P2;PMS_P1;PMS_P2;Temp;Humidity;BMP_temperature;BMP_pressure;BME280_temperature;BME280_humidity;BME280_pressure;Samples;Min_cycle;Max_cycle;Signal;HPM_P1;HPM_P2
2022/01/08 00:01:43;;;;;;;2.28;1.23;;;;;;;;;;5039015;28;20667;-70
2022/01/08 00:04:10;;;;;;;2.47;1.20;;;;;;;;;;5005930;28;20532;-70
2022/01/08 00:06:36;;;;;;;4.65;1.30;;;;;;;;;;5040666;28;20068;-69
2022/01/08 00:09:03;;;;;;;1.60;1.13;;;;;;;;;;5045470;28;20045;-70
2022/01/08 00:11:29;;;;;;;2.90;1.38;;;;;;;;;;5039163;28;20056;-73
2022/01/08 00:13:55;;;;;;;3.60;1.40;;;;;;;;;;5039113;28;20546;-70
2022/01/08 00:16:21;;;;;;;2.42;1.38;;;;;;;;;;4999886;28;20048;-72
2022/01/08 00:18:48;;;;;;;4.68;1.42;;;;;;;;;;5004909;28;20037;-72
2022/01/08 00:21:14;;;;;;;3.80;1.20;;;;;;;;;;5020251;28;20514;-73
2022/01/08 00:23:40;;;;;;;2.28;1.40;;;;;;;;;;4998947;28;20114;-70
2022/01/08 00:26:06;;;;;;;1.58;1.15;;;;;;;;;;5037428;28;20059;-75
2022/01/08 00:28:33;;;;;;;2.35;1.50;;;;;;;;;;5018218;28;20515;-73
2022/01/08 00:30:59;;;;;;;4.43;1.20;;;;;;;;;;5018023;28;20052;-72
2022/01/08 00:33:25;;;;;;;2.30;1.20;;;;;;;;;;5039429;28;20526;-72
2022/01/08 00:35:51;;;;;;;2.22;1.10;;;;;;;;;;5005490;28;20063;-70
2022/01/08 00:38:17;;;;;;;2.30;1.20;;;;;;;;;;5019264;28;20052;-70
2022/01/08 00:40:43;;;;;;;2.58;1.27;;;;;;;;;;5019775;28;20089;-71
2022/01/08 00:43:10;;;;;;;4.32;1.20;;;;;;;;;;5038038;28;20041;-70
2022/01/08 00:45:36;;;;;;;2.67;1.48;;;;;;;;;;5020116;28;20053;-72
2022/01/08 00:48:02;;;;;;;2.40;1.23;;;;;;;;;;5006515;28;20041;-70
2022/01/08 00:50:28;;;;;;;3.90;1.65;;;;;;;;;;5023656;28;20095;-70
2022/01/08 00:52:55;;;;;;;2.40;1.30;;;;;;;;;;5040040;28;20466;-70
2022/01/08 00:55:21;;;;;;;1.38;0.90;;;;;;;;;;5025931;28;20127;-72
2022/01/08 00:57:47;;;;;;;6.97;1.52;;;;;;;;;;5025527;28;20063;-72
2022/01/08 01:00:14;;;;;;;2.92;1.55;;;;;;;;;;5042730;28;20076;-71
2022/01/08 01:02:41;;;;;;;1.83;1.05;;;;;;;;;;5037955;28;20049;-70
2022/01/08 01:05:08;;;;;;;4.85;1.50;;;;;;;;;;5038290;28;20517;-69
2022/01/08 01:07:35;;;;;;;1.67;1.08;;;;;;;;;;5039746;28;20324;-71
2022/01/08 01:10:01;;;;;;;7.10;1.70;;;;;;;;;;5024437;28;20053;-70
2022/01/08 01:12:28;;;;;;;9.10;1.60;;;;;;;;;;5023180;28;20057;-70
2022/01/08 01:14:54;;;;;;;6.13;1.67;;;;;;;;;;5026207;28;20052;-70
2022/01/08 01:17:21;;;;;;;6.00;1.42;;;;;;;;;;5012448;28;20372;-70
2022/01/08 01:19:48;;;;;;;4.10;1.65;;;;;;;;;;5028886;28;20136;-68
2022/01/08 01:22:18;;;;;;;3.88;1.50;;;;;;;;;;5024417;28;20669;-71
2022/01/08 01:24:45;;;;;;;4.93;1.70;;;;;;;;;;5007688;28;20064;-71
2022/01/08 01:48:36;;;;;;;3.10;1.80;;;;;;;;;;4991797;28;20104;-69
2022/01/08 01:51:02;;;;;;;5.28;1.77;;;;;;;;;;4991365;28;20415;-69
2022/01/08 01:53:28;;;;;;;2.42;1.50;;;;;;;;;;4987023;28;20038;-69
2022/01/08 01:55:54;;;;;;;4.85;1.55;;;;;;;;;;4988376;28;20046;-70
2022/01/08 01:58:21;;;;;;;3.20;1.40;;;;;;;;;;5003538;28;20062;-70
2022/01/08 02:00:50;;;;;;;2.70;1.30;;;;;;;;;;4994071;28;20253;-69
2022/01/08 02:03:16;;;;;;;1.83;1.30;;;;;;;;;;4984114;28;20090;-70
2022/01/08 02:05:43;;;;;;;3.58;1.80;;;;;;;;;;5004412;28;20258;-69
2022/01/08 02:08:12;;;;;;;4.28;1.42;;;;;;;;;;5014068;28;20046;-69
2022/01/08 02:10:39;;;;;;;3.03;1.58;;;;;;;;;;4998894;28;20188;-70
2022/01/08 02:13:05;;;;;;;3.63;1.40;;;;;;;;;;4987137;28;20120;-69
2022/01/08 02:15:31;;;;;;;2.78;1.60;;;;;;;;;;5004542;28;20058;-69
2022/01/08 02:17:58;;;;;;;2.33;1.20;;;;;;;;;;5004755;28;20101;-71
2022/01/08 02:20:24;;;;;;;2.28;1.45;;;;;;;;;;5010713;28;20601;-72
2022/01/08 02:22:50;;;;;;;3.10;1.23;;;;;;;;;;5013848;28;20052;-71
2022/01/08 02:25:22;;;;;;;4.85;1.45;;;;;;;;;;5008947;28;20065;-70
2022/01/08 02:27:48;;;;;;;2.15;1.30;;;;;;;;;;5008074;28;20498;-71
2022/01/08 02:30:14;;;;;;;3.95;1.30;;;;;;;;;;5023262;28;21175;-69
2022/01/08 02:32:41;;;;;;;2.95;1.30;;;;;;;;;;5039763;28;20049;-71
2022/01/08 02:35:08;;;;;;;3.55;1.35;;;;;;;;;;5024135;28;20071;-68
2022/01/08 02:37:35;;;;;;;2.92;1.50;;;;;;;;;;5044531;28;20049;-69
2022/01/08 02:40:02;;;;;;;1.63;1.20;;;;;;;;;;5022964;28;20049;-70
2022/01/08 02:42:37;;;;;;;3.92;1.52;;;;;;;;;;5040270;28;20136;-68
2022/01/08 02:45:05;;;;;;;2.50;1.38;;;;;;;;;;5021256;28;20147;-70
2022/01/08 02:47:31;;;;;;;3.38;1.42;;;;;;;;;;5040592;28;20056;-70
2022/01/08 02:49:58;;;;;;;1.92;1.10;;;;;;;;;;5021013;28;20037;-70
2022/01/08 02:52:24;;;;;;;3.03;1.40;;;;;;;;;;5037703;28;20049;-69
2022/01/08 02:54:52;;;;;;;4.60;1.20;;;;;;;;;;5007592;28;20045;-71
2022/01/08 02:57:18;;;;;;;2.05;1.17;;;;;;;;;;5038441;28;20639;-69
2022/01/08 02:59:45;;;;;;;1.92;1.10;;;;;;;;;;5021212;28;20047;-70
2022/01/08 03:02:12;;;;;;;3.65;1.20;;;;;;;;;;5036773;28;20084;-69
2022/01/08 03:04:39;;;;;;;1.67;0.98;;;;;;;;;;5038213;28;20140;-69
2022/01/08 03:07:06;;;;;;;2.55;1.10;;;;;;;;;;5039812;28;20049;-67
2022/01/08 03:09:37;;;;;;;3.03;0.95;;;;;;;;;;5025624;28;20056;-70
2022/01/08 03:12:03;;;;;;;1.50;1.00;;;;;;;;;;5022895;28;20057;-69
2022/01/08 03:14:30;;;;;;;2.83;0.93;;;;;;;;;;5042218;28;20040;-70
2022/01/08 03:16:56;;;;;;;1.90;0.90;;;;;;;;;;5041299;28;20064;-69
2022/01/08 03:19:23;;;;;;;3.15;0.93;;;;;;;;;;5041125;28;20334;-71
2022/01/08 03:21:53;;;;;;;3.72;0.90;;;;;;;;;;5039482;28;20041;-70
2022/01/08 03:24:27;;;;;;;3.03;1.15;;;;;;;;;;5006759;28;20525;-71
2022/01/08 03:26:54;;;;;;;1.40;0.90;;;;;;;;;;5003207;28;20045;-70
2022/01/08 03:29:20;;;;;;;1.95;1.00;;;;;;;;;;5008151;28;20052;-69
2022/01/08 03:31:48;;;;;;;1.48;0.93;;;;;;;;;;5035020;28;20045;-72
2022/01/08 03:34:14;;;;;;;1.80;0.82;;;;;;;;;;5023996;28;20053;-69
2022/01/08 03:36:41;;;;;;;3.95;1.05;;;;;;;;;;5023789;28;20053;-69
2022/01/08 03:39:08;;;;;;;1.00;0.60;;;;;;;;;;5039449;28;20143;-73
2022/01/08 03:41:35;;;;;;;1.98;0.80;;;;;;;;;;5019411;28;20052;-71
2022/01/08 03:44:01;;;;;;;2.15;0.70;;;;;;;;;;5022028;28;20521;-69
2022/01/08 03:46:30;;;;;;;2.15;0.80;;;;;;;;;;5039347;28;20127;-69
2022/01/08 03:51:29;;;;;;;1.63;0.80;;;;;;;;;;5035470;28;20132;-70
2022/01/08 03:53:56;;;;;;;1.40;0.80;;;;;;;;;;5004351;28;20529;-69
2022/01/08 03:56:22;;;;;;;1.55;1.08;;;;;;;;;;5038885;28;20049;-69
2022/01/08 03:58:49;;;;;;;1.52;0.85;;;;;;;;;;5022876;28;20087;-69
2022/01/08 04:01:15;;;;;;;0.77;0.75;;;;;;;;;;5038346;28;20132;-69
2022/01/08 04:03:42;;;;;;;1.75;0.52;;;;;;;;;;5016160;28;20060;-67
2022/01/08 04:06:09;;;;;;;2.35;0.80;;;;;;;;;;5005733;28;20053;-68
2022/01/08 04:08:35;;;;;;;0.50;0.47;;;;;;;;;;5041008;28;20739;-69
2022/01/08 04:11:02;;;;;;;0.85;0.50;;;;;;;;;;5021040;28;20053;-69
2022/01/08 04:13:32;;;;;;;1.00;0.60;;;;;;;;;;5037745;28;20047;-69
2022/01/08 04:16:08;;;;;;;3.17;0.77;;;;;;;;;;5018252;28;20359;-69
2022/01/08 04:18:35;;;;;;;1.65;0.80;;;;;;;;;;5037794;28;20241;-68
2022/01/08 04:21:58;;;;;;;1.70;0.70;;;;;;;;;;5039894;28;20071;-70
2022/01/08 04:23:47;;;;;;;1.75;0.80;;;;;;;;;;5021056;28;20795;-70
2022/01/08 04:26:14;;;;;;;0.98;0.55;;;;;;;;;;5002674;28;20083;-72
2022/01/08 04:28:40;;;;;;;1.20;0.60;;;;;;;;;;5039295;28;20053;-70
2022/01/08 04:31:07;;;;;;;1.42;0.80;;;;;;;;;;5020571;28;21313;-69
2022/01/08 04:33:32;;;;;;;4.03;0.70;;;;;;;;;;5039015;28;20053;-68
2022/01/08 04:35:58;;;;;;;1.08;0.50;;;;;;;;;;5002684;28;20407;-70
2022/01/08 04:38:25;;;;;;;1.58;0.80;;;;;;;;;;5038330;28;20048;-69
2022/01/08 04:40:51;;;;;;;2.63;0.68;;;;;;;;;;5021863;28;20374;-71
2022/01/08 04:43:17;;;;;;;1.58;0.82;;;;;;;;;;5037107;28;20465;-70
2022/01/08 04:45:43;;;;;;;1.08;0.82;;;;;;;;;;5003402;28;20102;-71
2022/01/08 04:48:10;;;;;;;1.13;0.73;;;;;;;;;;5008445;28;20053;-68
2022/01/08 04:50:36;;;;;;;1.52;0.60;;;;;;;;;;5022603;28;20052;-69
2022/01/08 04:53:03;;;;;;;2.00;0.77;;;;;;;;;;5039842;28;20429;-67
2022/01/08 04:55:29;;;;;;;1.20;0.70;;;;;;;;;;5037419;28;20037;-70
2022/01/08 04:57:55;;;;;;;1.15;0.70;;;;;;;;;;5039569;28;20455;-67
2022/01/08 05:00:22;;;;;;;1.17;0.65;;;;;;;;;;5005062;28;20061;-71
2022/01/08 05:02:49;;;;;;;3.67;0.70;;;;;;;;;;5021346;28;20057;-71
2022/01/08 05:05:16;;;;;;;0.93;0.65;;;;;;;;;;5021355;28;20111;-68
2022/01/08 05:07:42;;;;;;;0.65;0.60;;;;;;;;;;5020732;28;20067;-69
2022/01/08 05:10:09;;;;;;;1.20;0.60;;;;;;;;;;5039898;28;20353;-68
2022/01/08 05:12:35;;;;;;;1.40;0.60;;;;;;;;;;5038465;28;20045;-69
2022/01/08 05:15:02;;;;;;;0.95;0.70;;;;;;;;;;5022254;28;20048;-70
2022/01/08 05:17:35;;;;;;;1.83;0.82;;;;;;;;;;5016629;28;20076;-69
2022/01/08 05:20:05;;;;;;;1.75;0.93;;;;;;;;;;5041240;28;20113;-68
2022/01/08 05:22:49;;;;;;;1.10;0.80;;;;;;;;;;5020123;28;20070;-70
2022/01/08 05:25:16;;;;;;;1.17;0.80;;;;;;;;;;5004828;28;20065;-70
2022/01/08 05:27:43;;;;;;;1.00;0.70;;;;;;;;;;5003400;28;20053;-68
2022/01/08 05:30:10;;;;;;;2.90;0.90;;;;;;;;;;5040283;28;20052;-70
2022/01/08 05:32:37;;;;;;;1.17;0.80;;;;;;;;;;5038900;28;20063;-69
2022/01/08 05:35:03;;;;;;;2.38;1.00;;;;;;;;;;5040196;28;20241;-68
2022/01/08 05:37:29;;;;;;;1.38;0.88;;;;;;;;;;5022557;28;20389;-72
2022/01/08 05:39:56;;;;;;;1.58;0.93;;;;;;;;;;5039950;28;20045;-69
2022/01/08 05:42:22;;;;;;;1.42;1.00;;;;;;;;;;5038756;28;20564;-69
2022/01/08 05:44:48;;;;;;;2.97;1.02;;;;;;;;;;5022401;28;20180;-69
2022/01/08 05:47:15;;;;;;;2.08;1.10;;;;;;;;;;5004251;28;20065;-69
2022/01/08 05:49:42;;;;;;;1.33;0.98;;;;;;;;;;5040362;28;20143;-69
2022/01/08 05:52:08;;;;;;;4.93;1.17;;;;;;;;;;5020953;28;20148;-69
2022/01/08 05:54:35;;;;;;;2.47;1.10;;;;;;;;;;5040360;28;20041;-70
2022/01/08 05:57:01;;;;;;;1.50;0.90;;;;;;;;;;5025204;28;20072;-70
2022/01/08 05:59:28;;;;;;;2.60;1.10;;;;;;;;;;5028405;28;20080;-70
2022/01/08 06:01:55;;;;;;;5.63;1.00;;;;;;;;;;5041197;28;20870;-71
2022/01/08 06:04:22;;;;;;;1.30;1.00;;;;;;;;;;5022337;28;20099;-71
2022/01/08 06:06:48;;;;;;;2.17;0.90;;;;;;;;;;5042294;28;20536;-70
2022/01/08 06:09:15;;;;;;;3.53;0.88;;;;;;;;;;5024294;28;20580;-68
2022/01/08 06:11:42;;;;;;;1.38;1.00;;;;;;;;;;5039240;28;20135;-68
2022/01/08 06:14:08;;;;;;;2.60;1.10;;;;;;;;;;5042729;28;20152;-70
2022/01/08 06:16:37;;;;;;;1.48;1.02;;;;;;;;;;5040558;28;20274;-68
2022/01/08 06:19:06;;;;;;;2.85;1.20;;;;;;;;;;5011017;28;20060;-71
2022/01/08 06:21:33;;;;;;;2.60;1.20;;;;;;;;;;5041069;28;20289;-69
2022/01/08 06:24:00;;;;;;;3.67;1.40;;;;;;;;;;5042127;28;20075;-70
2022/01/08 06:26:26;;;;;;;1.83;1.00;;;;;;;;;;5039545;28;20068;-69
2022/01/08 06:28:53;;;;;;;1.77;1.10;;;;;;;;;;5038903;28;20041;-71
2022/01/08 06:31:20;;;;;;;4.93;1.00;;;;;;;;;;5025143;28;20061;-70
2022/01/08 06:33:46;;;;;;;2.58;1.08;;;;;;;;;;5041239;28;20056;-70
2022/01/08 06:36:13;;;;;;;3.03;1.20;;;;;;;;;;5023397;28;20480;-69
2022/01/08 06:38:40;;;;;;;2.05;1.17;;;;;;;;;;5042939;28;20053;-69
2022/01/08 06:41:07;;;;;;;3.65;1.17;;;;;;;;;;5028750;28;20056;-67
2022/01/08 06:43:33;;;;;;;1.27;1.00;;;;;;;;;;5043068;28;20033;-70
2022/01/08 06:46:00;;;;;;;4.07;1.35;;;;;;;;;;5045165;28;20041;-71
2022/01/08 06:48:25;;;;;;;2.88;1.13;;;;;;;;;;5026527;28;20056;-69
2022/01/08 06:50:52;;;;;;;2.85;1.02;;;;;;;;;;5024975;28;20596;-70
2022/01/08 06:53:18;;;;;;;2.72;1.10;;;;;;;;;;5044164;28;20072;-70
2022/01/08 06:55:44;;;;;;;1.92;0.95;;;;;;;;;;5042727;28;20230;-70
2022/01/08 06:58:10;;;;;;;4.85;1.13;;;;;;;;;;5021511;28;20144;-71
2022/01/08 07:00:37;;;;;;;2.25;1.25;;;;;;;;;;5041984;28;20053;-71
2022/01/08 07:03:03;;;;;;;2.05;1.10;;;;;;;;;;5040017;28;20071;-72
2022/01/08 07:05:29;;;;;;;2.45;1.10;;;;;;;;;;5026312;28;20049;-72
2022/01/08 07:07:55;;;;;;;1.42;0.95;;;;;;;;;;5027888;28;20040;-70
2022/01/08 07:10:22;;;;;;;1.90;1.13;;;;;;;;;;5047640;28;20045;-72
2022/01/08 07:12:48;;;;;;;3.38;1.10;;;;;;;;;;5044712;28;20045;-69
2022/01/08 07:15:14;;;;;;;3.45;1.38;;;;;;;;;;5041430;28;20091;-71
2022/01/08 07:17:41;;;;;;;2.35;1.20;;;;;;;;;;5041503;28;20477;-70
2022/01/08 07:20:07;;;;;;;4.32;1.75;;;;;;;;;;5027048;28;20546;-72
2022/01/08 07:22:34;;;;;;;4.55;2.40;;;;;;;;;;5040989;28;20051;-72
2022/01/08 07:25:00;;;;;;;8.18;2.90;;;;;;;;;;5038885;28;20063;-72
2022/01/08 07:27:30;;;;;;;5.07;2.10;;;;;;;;;;5014780;28;20100;-71
2022/01/08 07:29:56;;;;;;;4.70;2.38;;;;;;;;;;5040312;28;20486;-71
2022/01/08 07:32:22;;;;;;;5.10;2.53;;;;;;;;;;5041621;28;20052;-74
2022/01/08 07:34:48;;;;;;;8.77;2.67;;;;;;;;;;5039506;28;20061;-71
2022/01/08 07:37:14;;;;;;;5.18;2.80;;;;;;;;;;5007269;28;20558;-72
2022/01/08 07:39:40;;;;;;;5.40;3.10;;;;;;;;;;5041533;28;20068;-70
2022/01/08 07:42:06;;;;;;;3.83;2.67;;;;;;;;;;5038925;28;20074;-68
2022/01/08 07:44:32;;;;;;;5.93;2.40;;;;;;;;;;5041331;28;20583;-70
2022/01/08 07:47:00;;;;;;;9.65;2.38;;;;;;;;;;5020126;28;20070;-71
2022/01/08 07:49:26;;;;;;;4.03;1.92;;;;;;;;;;5021836;28;20159;-69
2022/01/08 07:51:52;;;;;;;8.25;2.00;;;;;;;;;;5021142;28;20048;-70
2022/01/08 07:54:19;;;;;;;5.72;1.40;;;;;;;;;;5021171;28;20049;-70
2022/01/08 07:56:45;;;;;;;4.82;1.88;;;;;;;;;;5038452;28;20886;-70
2022/01/08 07:59:11;;;;;;;3.47;1.45;;;;;;;;;;5019948;28;20057;-69
2022/01/08 08:01:37;;;;;;;4.78;1.50;;;;;;;;;;5034236;28;20061;-72
2022/01/08 08:04:04;;;;;;;4.60;1.70;;;;;;;;;;5022315;28;20037;-70
2022/01/08 08:06:32;;;;;;;4.22;1.02;;;;;;;;;;5024412;28;20044;-72
2022/01/08 08:08:59;;;;;;;3.65;1.20;;;;;;;;;;5038359;28;20124;-69
2022/01/08 08:11:25;;;;;;;2.85;1.30;;;;;;;;;;5037671;28;20036;-71
2022/01/08 08:13:52;;;;;;;2.53;1.10;;;;;;;;;;5039649;28;20049;-70
2022/01/08 08:16:20;;;;;;;3.65;1.50;;;;;;;;;;5040860;28;20053;-70
2022/01/08 08:18:46;;;;;;;4.63;1.80;;;;;;;;;;5008450;28;20053;-73
2022/01/08 08:21:12;;;;;;;3.13;1.30;;;;;;;;;;5002416;28;20073;-70
2022/01/08 08:23:39;;;;;;;3.33;1.50;;;;;;;;;;5014397;28;20132;-71
2022/01/08 08:26:05;;;;;;;12.95;1.60;;;;;;;;;;5037807;28;20041;-70
2022/01/08 08:28:32;;;;;;;2.92;1.35;;;;;;;;;;5036306;28;20077;-70
2022/01/08 08:30:58;;;;;;;5.95;1.63;;;;;;;;;;5022590;28;20041;-71
2022/01/08 08:33:24;;;;;;;3.00;1.55;;;;;;;;;;5005495;28;20040;-70
2022/01/08 08:35:53;;;;;;;2.92;1.80;;;;;;;;;;5034691;28;20064;-72
2022/01/08 08:38:18;;;;;;;4.32;1.40;;;;;;;;;;5022833;28;20053;-70
2022/01/08 08:40:45;;;;;;;6.75;2.00;;;;;;;;;;5006134;28;20049;-71
2022/01/08 08:43:11;;;;;;;8.32;1.73;;;;;;;;;;5040013;28;20549;-70
2022/01/08 08:45:40;;;;;;;4.22;1.73;;;;;;;;;;5038462;28;20053;-71
2022/01/08 08:48:06;;;;;;;2.53;1.60;;;;;;;;;;5019067;28;20044;-71
2022/01/08 08:50:32;;;;;;;7.30;1.90;;;;;;;;;;5006371;28;20060;-71
2022/01/08 08:52:58;;;;;;;4.20;2.00;;;;;;;;;;5023682;28;20053;-70
2022/01/08 08:55:25;;;;;;;3.63;1.92;;;;;;;;;;5037403;28;20045;-69
2022/01/08 08:57:51;;;;;;;5.68;2.40;;;;;;;;;;5019811;28;20053;-71
2022/01/08 09:00:17;;;;;;;4.32;1.98;;;;;;;;;;5020779;28;20110;-71
2022/01/08 09:02:44;;;;;;;4.93;2.30;;;;;;;;;;5037603;28;20478;-74
2022/01/08 09:05:11;;;;;;;7.95;2.40;;;;;;;;;;5040239;28;20502;-73
2022/01/08 09:07:39;;;;;;;8.60;3.00;;;;;;;;;;5020566;28;20037;-70
2022/01/08 09:10:07;;;;;;;8.65;2.85;;;;;;;;;;5023427;28;20060;-71
2022/01/08 09:12:33;;;;;;;5.45;2.83;;;;;;;;;;5038757;28;20184;-72
2022/01/08 09:15:00;;;;;;;9.48;3.38;;;;;;;;;;5026229;28;20045;-72
2022/01/08 09:17:27;;;;;;;8.48;2.78;;;;;;;;;;5026377;28;20056;-70
2022/01/08 09:19:53;;;;;;;6.93;2.63;;;;;;;;;;5042490;28;20053;-71
2022/01/08 09:22:20;;;;;;;8.38;2.60;;;;;;;;;;5042045;28;20049;-70
2022/01/08 09:24:46;;;;;;;6.00;2.67;;;;;;;;;;5021567;28;20148;-74
2022/01/08 09:27:12;;;;;;;6.20;2.08;;;;;;;;;;5036925;28;20557;-71
2022/01/08 09:29:39;;;;;;;3.75;2.30;;;;;;;;;;5041993;28;20052;-71
2022/01/08 09:32:06;;;;;;;4.80;2.25;;;;;;;;;;5006380;28;20048;-72
2022/01/08 09:34:33;;;;;;;6.07;1.85;;;;;;;;;;5037812;28;20057;-75
2022/01/08 09:37:00;;;;;;;11.07;2.20;;;;;;;;;;5022871;28;20071;-71
2022/01/08 09:39:26;;;;;;;6.75;2.40;;;;;;;;;;5042439;28;20055;-73
2022/01/08 09:41:54;;;;;;;3.97;1.88;;;;;;;;;;5040857;28;20057;-74
2022/01/08 09:44:20;;;;;;;5.65;2.40;;;;;;;;;;5033218;28;20037;-74
2022/01/08 09:46:46;;;;;;;5.85;2.17;;;;;;;;;;5051362;28;20147;-74
2022/01/08 09:49:12;;;;;;;6.70;2.08;;;;;;;;;;5017292;28;20057;-75
2022/01/08 09:51:39;;;;;;;4.38;1.98;;;;;;;;;;5045003;28;20053;-76
2022/01/08 09:54:05;;;;;;;3.65;1.85;;;;;;;;;;5049922;28;20037;-74
2022/01/08 09:56:32;;;;;;;9.43;1.73;;;;;;;;;;5046421;28;20486;-75
2022/01/08 09:59:00;;;;;;;2.67;1.42;;;;;;;;;;5045991;28;20675;-77
2022/01/08 10:01:34;;;;;;;8.13;2.15;;;;;;;;;;5027351;28;20067;-76
2022/01/08 10:04:04;;;;;;;8.38;1.60;;;;;;;;;;5028607;28;20577;-77
2022/01/08 10:06:36;;;;;;;2.75;1.40;;;;;;;;;;5024900;28;20049;-75
2022/01/08 10:09:07;;;;;;;5.15;1.60;;;;;;;;;;5030310;28;20094;-76
2022/01/08 10:11:33;;;;;;;3.78;1.52;;;;;;;;;;5041510;28;20053;-74
2022/01/08 10:14:06;;;;;;;9.77;1.60;;;;;;;;;;5047798;28;20037;-76
2022/01/08 10:19:23;;;;;;;5.15;1.50;;;;;;;;;;5053094;28;20144;-73
2022/01/08 10:21:51;;;;;;;4.57;1.35;;;;;;;;;;5032608;28;21538;-75
2022/01/08 10:24:20;;;;;;;2.85;1.55;;;;;;;;;;5045827;28;20501;-76
2022/01/08 10:26:49;;;;;;;6.05;1.80;;;;;;;;;;5035063;28;20053;-74
2022/01/08 10:29:19;;;;;;;4.57;1.85;;;;;;;;;;5039394;28;20076;-74
2022/01/08 10:31:48;;;;;;;4.70;1.40;;;;;;;;;;5038816;28;20484;-75
2022/01/08 10:34:25;;;;;;;5.50;1.48;;;;;;;;;;5035907;28;20053;-75
2022/01/08 10:36:54;;;;;;;6.53;1.85;;;;;;;;;;5032485;28;20067;-72
2022/01/08 10:39:22;;;;;;;4.75;1.73;;;;;;;;;;5029188;28;20081;-72
2022/01/08 10:41:52;;;;;;;3.47;1.25;;;;;;;;;;5030814;28;20091;-74
2022/01/08 10:44:25;;;;;;;2.95;1.33;;;;;;;;;;5050134;28;20235;-80
2022/01/08 10:46:57;;;;;;;2.22;1.20;;;;;;;;;;5033693;28;20192;-72
2022/01/08 10:49:35;;;;;;;3.70;1.25;;;;;;;;;;5051837;28;20146;-72
2022/01/08 10:52:12;;;;;;;2.28;1.23;;;;;;;;;;5049325;28;20049;-72
2022/01/08 10:54:40;;;;;;;2.08;1.23;;;;;;;;;;5048770;28;20046;-72
2022/01/08 10:57:08;;;;;;;2.95;1.55;;;;;;;;;;5031305;28;20056;-75
2022/01/08 10:59:36;;;;;;;4.93;1.67;;;;;;;;;;5018810;28;20045;-75
2022/01/08 11:02:08;;;;;;;4.78;1.45;;;;;;;;;;5052448;28;20076;-73
2022/01/08 11:04:51;;;;;;;2.38;1.20;;;;;;;;;;5048688;28;20454;-73
2022/01/08 11:07:21;;;;;;;5.05;1.63;;;;;;;;;;5030485;28;20654;-74
2022/01/08 11:09:57;;;;;;;2.50;1.40;;;;;;;;;;5049403;28;20045;-72
2022/01/08 11:12:28;;;;;;;7.28;1.40;;;;;;;;;;5047628;28;20073;-72
2022/01/08 11:15:12;;;;;;;4.07;1.70;;;;;;;;;;5045477;28;20084;-75
2022/01/08 11:17:45;;;;;;;2.80;1.55;;;;;;;;;;5008695;28;20049;-76
2022/01/08 11:20:15;;;;;;;2.65;1.50;;;;;;;;;;5031446;28;20394;-72
2022/01/08 11:22:47;;;;;;;3.45;1.60;;;;;;;;;;5049655;28;20049;-71
2022/01/08 11:25:18;;;;;;;2.67;1.10;;;;;;;;;;5046884;28;20774;-76
2022/01/08 11:28:08;;;;;;;3.97;1.83;;;;;;;;;;5046204;28;20580;-72
2022/01/08 11:30:38;;;;;;;3.08;1.55;;;;;;;;;;5048193;28;20049;-75
2022/01/08 11:33:20;;;;;;;3.22;1.40;;;;;;;;;;5047959;28;20048;-76
2022/01/08 11:35:49;;;;;;;6.22;1.48;;;;;;;;;;5031372;28;20135;-74
2022/01/08 11:38:19;;;;;;;5.13;1.60;;;;;;;;;;5035135;28;20052;-75
2022/01/08 11:40:48;;;;;;;3.65;1.55;;;;;;;;;;5049231;28;20148;-71
2022/01/08 11:43:18;;;;;;;7.03;1.80;;;;;;;;;;5030138;28;20048;-71
2022/01/08 11:46:03;;;;;;;3.50;1.70;;;;;;;;;;5050396;28;20067;-74
2022/01/08 11:48:33;;;;;;;4.22;1.52;;;;;;;;;;5048653;28;20048;-76
2022/01/08 11:51:01;;;;;;;6.07;1.50;;;;;;;;;;5035620;28;20041;-77
2022/01/08 11:53:30;;;;;;;2.80;1.52;;;;;;;;;;5048281;28;20053;-74
2022/01/08 11:55:59;;;;;;;7.22;1.50;;;;;;;;;;5030382;28;20072;-76
2022/01/08 11:58:31;;;;;;;2.38;1.20;;;;;;;;;;5029237;28;20068;-77
2022/01/08 12:01:14;;;;;;;2.25;1.17;;;;;;;;;;5045370;28;20049;-76
2022/01/08 12:03:51;;;;;;;2.88;1.40;;;;;;;;;;5041551;28;20049;-77
2022/01/08 12:06:21;;;;;;;3.38;1.55;;;;;;;;;;5043880;28;20057;-78
2022/01/08 12:09:07;;;;;;;3.80;1.20;;;;;;;;;;5046312;28;20045;-74
2022/01/08 12:11:52;;;;;;;4.25;1.30;;;;;;;;;;5046507;28;20040;-76
2022/01/08 12:14:24;;;;;;;3.08;1.30;;;;;;;;;;5048661;28;20061;-77
2022/01/08 12:17:20;;;;;;;4.45;1.67;;;;;;;;;;5031092;28;20105;-74
2022/01/08 12:19:50;;;;;;;3.10;1.70;;;;;;;;;;5047828;28;20749;-77
2022/01/08 12:22:16;;;;;;;4.10;1.33;;;;;;;;;;5027733;28;20561;-75
2022/01/08 12:24:56;;;;;;;4.60;1.58;;;;;;;;;;5025254;28;20694;-78
2022/01/08 12:27:39;;;;;;;5.10;1.80;;;;;;;;;;5042000;28;20057;-78
2022/01/08 12:30:17;;;;;;;3.95;2.03;;;;;;;;;;5046529;28;20114;-79
2022/01/08 12:33:17;;;;;;;5.72;2.28;;;;;;;;;;5039809;28;20056;-76
2022/01/08 12:35:43;;;;;;;3.97;1.48;;;;;;;;;;5041924;28;20064;-78
2022/01/08 12:38:25;;;;;;;3.10;1.80;;;;;;;;;;5041447;28;20077;-71
2022/01/08 12:40:51;;;;;;;8.43;3.60;;;;;;;;;;5006969;28;20133;-67
2022/01/08 12:43:20;;;;;;;6.05;2.05;;;;;;;;;;5025849;28;20143;-70
2022/01/08 12:45:50;;;;;;;5.88;1.70;;;;;;;;;;5041530;28;20052;-66
2022/01/08 12:48:18;;;;;;;5.45;1.92;;;;;;;;;;5019037;28;20906;-71
2022/01/08 12:50:44;;;;;;;12.07;2.20;;;;;;;;;;5018050;28;20056;-70
2022/01/08 12:53:14;;;;;;;8.23;2.80;;;;;;;;;;5021662;28;20041;-75
2022/01/08 12:55:42;;;;;;;8.48;2.30;;;;;;;;;;5022857;28;20179;-70
2022/01/08 12:58:17;;;;;;;6.15;1.90;;;;;;;;;;5038697;28;20061;-70
2022/01/08 13:01:01;;;;;;;3.15;1.42;;;;;;;;;;5018631;28;20056;-76
2022/01/08 13:03:49;;;;;;;3.60;1.40;;;;;;;;;;5001393;28;20119;-74
2022/01/08 13:06:17;;;;;;;4.00;1.50;;;;;;;;;;5006516;28;20053;-72
2022/01/08 13:08:52;;;;;;;3.55;1.65;;;;;;;;;;5001705;28;20053;-75
2022/01/08 13:11:21;;;;;;;4.50;1.98;;;;;;;;;;5007237;28;20115;-78
2022/01/08 13:13:55;;;;;;;4.05;2.25;;;;;;;;;;5004341;28;20060;-73
2022/01/08 13:16:31;;;;;;;2.95;1.35;;;;;;;;;;5005438;28;20175;-78
2022/01/08 13:19:07;;;;;;;4.95;1.55;;;;;;;;;;5007116;28;20503;-76
2022/01/08 13:21:36;;;;;;;2.55;1.65;;;;;;;;;;5004903;28;20062;-77
2022/01/08 13:24:47;;;;;;;4.28;1.98;;;;;;;;;;4989533;28;20050;-78
2022/01/08 13:27:20;;;;;;;4.30;2.13;;;;;;;;;;4987999;28;20076;-75
2022/01/08 13:29:48;;;;;;;6.43;2.25;;;;;;;;;;5010310;28;20137;-75
2022/01/08 13:32:19;;;;;;;6.68;2.58;;;;;;;;;;4989243;28;20463;-75
2022/01/08 13:34:58;;;;;;;9.00;2.63;;;;;;;;;;5004740;28;20733;-75
2022/01/08 13:37:26;;;;;;;9.88;2.38;;;;;;;;;;5005804;28;20050;-75
2022/01/08 13:39:56;;;;;;;5.03;1.83;;;;;;;;;;5004946;28;20080;-72
2022/01/08 13:42:36;;;;;;;4.97;1.48;;;;;;;;;;5004909;28;20114;-72
2022/01/08 13:45:11;;;;;;;3.90;1.50;;;;;;;;;;5005330;28;20073;-76
2022/01/08 13:47:58;;;;;;;8.95;2.17;;;;;;;;;;5005030;28;20053;-75
2022/01/08 13:50:38;;;;;;;4.57;1.70;;;;;;;;;;5008340;28;20113;-72
2022/01/08 13:53:08;;;;;;;4.57;1.50;;;;;;;;;;5003382;28;20046;-71
2022/01/08 13:55:44;;;;;;;6.35;1.70;;;;;;;;;;5025484;28;20045;-73
2022/01/08 13:58:14;;;;;;;8.82;1.70;;;;;;;;;;5005982;28;20042;-75
2022/01/08 14:00:49;;;;;;;6.57;1.85;;;;;;;;;;5012789;28;20057;-77
2022/01/08 14:03:20;;;;;;;;;;;;;;;;;;5049763;28;20455;-75
2022/01/08 14:05:46;;;;;;;4.93;2.03;;;;;;;;;;5048293;28;19985;-74
2022/01/08 14:08:12;;;;;;;6.00;2.03;;;;;;;;;;5036310;28;20076;-69
2022/01/08 14:10:42;;;;;;;7.20;3.55;;;;;;;;;;5052855;28;20060;-70
2022/01/08 14:13:15;;;;;;;3.25;1.70;;;;;;;;;;5030181;28;20086;-70
2022/01/08 14:15:43;;;;;;;7.60;1.83;;;;;;;;;;5043026;28;20300;-72
2022/01/08 14:18:12;;;;;;;5.68;1.60;;;;;;;;;;5052317;28;20048;-71
2022/01/08 14:20:41;;;;;;;5.28;2.35;;;;;;;;;;5035277;28;20387;-74
2022/01/08 14:23:12;;;;;;;7.43;1.80;;;;;;;;;;5054330;28;20092;-71
2022/01/08 14:25:38;;;;;;;3.13;1.27;;;;;;;;;;5053297;28;20061;-70
2022/01/08 14:28:21;;;;;;;3.75;1.70;;;;;;;;;;5018286;28;20048;-71
2022/01/08 14:30:48;;;;;;;3.17;1.75;;;;;;;;;;5046519;28;20049;-69
2022/01/08 14:33:15;;;;;;;3.58;1.55;;;;;;;;;;5029981;28;20124;-76
2022/01/08 14:35:41;;;;;;;5.15;1.83;;;;;;;;;;5028733;28;20160;-71
2022/01/08 14:38:08;;;;;;;2.45;1.30;;;;;;;;;;5032733;28;20072;-71
2022/01/08 14:40:35;;;;;;;3.13;1.30;;;;;;;;;;5032453;28;20301;-70
2022/01/08 14:43:07;;;;;;;3.40;1.90;;;;;;;;;;5022843;28;20041;-74
2022/01/08 14:45:36;;;;;;;2.45;1.42;;;;;;;;;;5044914;28;20064;-70
2022/01/08 14:48:24;;;;;;;2.50;1.40;;;;;;;;;;5053096;28;20071;-74
2022/01/08 14:50:51;;;;;;;4.10;1.88;;;;;;;;;;5033529;28;20131;-72
2022/01/08 14:53:17;;;;;;;3.20;1.63;;;;;;;;;;5050933;28;20041;-76
2022/01/08 14:55:46;;;;;;;4.75;1.80;;;;;;;;;;5046893;28;20049;-70
2022/01/08 14:58:13;;;;;;;5.70;2.03;;;;;;;;;;5031809;28;20057;-75
2022/01/08 15:00:41;;;;;;;3.20;1.75;;;;;;;;;;5021672;28;20037;-70
2022/01/08 15:03:07;;;;;;;3.88;1.80;;;;;;;;;;5033045;28;20045;-70
2022/01/08 15:05:34;;;;;;;4.78;1.75;;;;;;;;;;5037880;28;20454;-77
2022/01/08 15:08:02;;;;;;;3.08;1.80;;;;;;;;;;5026086;28;20060;-70
2022/01/08 15:10:29;;;;;;;4.38;2.40;;;;;;;;;;5037322;28;20049;-71
2022/01/08 15:12:55;;;;;;;3.53;2.10;;;;;;;;;;5053822;28;20065;-69
2022/01/08 15:15:21;;;;;;;4.57;2.30;;;;;;;;;;5052314;28;20521;-74
2022/01/08 15:17:47;;;;;;;4.68;2.50;;;;;;;;;;5048730;28;20049;-71
2022/01/08 15:20:14;;;;;;;5.53;3.25;;;;;;;;;;5054472;28;20060;-70